Time;durP1;ratioP1;P1;durP2;ratioP2;P2;SDS_P1;SDS_P2;PMS_P1;PMS_P2;Temp;Humidity;BMP_temperature;BMP_pressure;BME280_temperature;BME280_humidity;BME280_pressure;Samples;Min_cycle;Max_cycle;Signal;HPM_P1;HPM_P2
2023/09/20 00:00:38;;;;;;;7.18;3.00;;;17.50;99.90;;;;;;5078131;28;20052;-72
2023/09/20 00:03:06;;;;;;;;;;;17.50;99.90;;;;;;5046898;28;1124160;-72
2023/09/20 00:05:32;;;;;;;6.55;2.90;;;17.50;99.90;;;;;;5088594;28;19927;-72
2023/09/20 00:08:02;;;;;;;6.57;2.60;;;17.50;99.90;;;;;;5073468;28;20051;-72
2023/09/20 00:10:27;;;;;;;9.07;3.28;;;17.50;99.90;;;;;;5069834;28;20069;-72
2023/09/20 00:12:53;;;;;;;8.35;3.10;;;17.50;99.90;;;;;;5072482;28;20040;-72
2023/09/20 00:15:19;;;;;;;8.48;3.10;;;17.50;99.90;;;;;;5063313;28;20064;-72
2023/09/20 00:17:45;;;;;;;8.88;2.88;;;17.50;99.90;;;;;;5064470;28;20042;-72
2023/09/20 00:20:14;;;;;;;8.85;3.10;;;17.50;99.90;;;;;;5068636;28;20047;-72
2023/09/20 00:22:41;;;;;;;7.70;3.10;;;17.50;99.90;;;;;;5071657;28;20123;-72
2023/09/20 00:25:12;;;;;;;8.60;2.83;;;17.50;99.90;;;;;;5089142;28;20047;-71
2023/09/20 00:27:40;;;;;;;7.90;2.72;;;17.50;99.90;;;;;;5067303;28;20055;-72
2023/09/20 00:30:10;;;;;;;9.65;3.00;;;17.50;99.90;;;;;;5066365;28;20127;-72
2023/09/20 00:32:43;;;;;;;7.43;3.03;;;17.50;99.90;;;;;;5064375;28;20053;-72
2023/09/20 00:35:14;;;;;;;9.32;3.10;;;17.50;99.90;;;;;;5082736;28;20746;-72
2023/09/20 00:37:41;;;;;;;7.97;3.20;;;17.50;99.90;;;;;;5064820;28;20043;-72
2023/09/20 00:40:15;;;;;;;8.80;3.10;;;17.50;99.90;;;;;;5065970;28;20070;-72
2023/09/20 00:42:46;;;;;;;7.35;3.30;;;17.50;99.90;;;;;;5068345;28;20505;-72
2023/09/20 00:45:15;;;;;;;8.90;3.05;;;17.50;99.90;;;;;;5077828;28;20040;-72
2023/09/20 00:47:55;;;;;;;9.07;3.17;;;17.50;99.90;;;;;;5063188;28;20036;-72
2023/09/20 00:50:22;;;;;;;8.68;2.95;;;17.50;99.90;;;;;;5065692;28;20124;-73
2023/09/20 00:52:51;;;;;;;7.47;3.20;;;17.50;99.90;;;;;;5066281;28;20032;-73
2023/09/20 00:55:24;;;;;;;8.70;3.28;;;17.50;99.90;;;;;;5065521;28;20048;-73
2023/09/20 00:58:04;;;;;;;8.85;3.10;;;17.50;99.90;;;;;;5087365;28;20040;-72
2023/09/20 01:00:32;;;;;;;9.30;2.97;;;17.50;99.90;;;;;;5064006;28;20047;-72
2023/09/20 01:03:00;;;;;;;9.63;3.10;;;17.50;99.90;;;;;;5065133;28;20483;-72
2023/09/20 01:05:27;;;;;;;10.18;3.30;;;17.50;99.90;;;;;;5070759;28;20047;-72
2023/09/20 01:07:55;;;;;;;8.52;2.97;;;17.50;99.90;;;;;;5070600;28;20079;-72
2023/09/20 01:10:25;;;;;;;9.55;3.08;;;17.50;99.90;;;;;;5067008;28;20028;-72
2023/09/20 01:13:02;;;;;;;11.77;3.60;;;17.50;99.90;;;;;;5064834;28;20132;-72
2023/09/20 01:15:28;;;;;;;10.80;3.55;;;17.50;99.90;;;;;;5070003;28;20135;-72
2023/09/20 01:17:58;;;;;;;11.60;3.65;;;17.50;99.90;;;;;;5069244;28;20111;-72
2023/09/20 01:20:32;;;;;;;10.38;3.42;;;17.50;99.90;;;;;;5064480;28;20487;-72
2023/09/20 01:22:59;;;;;;;11.25;3.63;;;17.50;99.90;;;;;;5063846;28;20453;-73
2023/09/20 01:25:32;;;;;;;12.60;3.60;;;17.50;99.90;;;;;;5072780;28;20049;-72
2023/09/20 01:28:00;;;;;;;9.68;3.10;;;17.50;99.90;;;;;;5065196;28;20088;-73
2023/09/20 01:30:31;;;;;;;8.07;3.13;;;17.50;99.90;;;;;;5059080;28;20096;-72
2023/09/20 01:33:04;;;;;;;9.52;3.28;;;17.60;99.90;;;;;;5083404;28;20048;-72
2023/09/20 01:35:31;;;;;;;10.20;3.78;;;17.60;99.90;;;;;;5069071;28;20105;-72
2023/09/20 01:37:58;;;;;;;9.10;2.80;;;17.60;99.90;;;;;;5066638;28;20481;-72
2023/09/20 01:40:26;;;;;;;13.43;3.13;;;17.60;99.90;;;;;;5048354;28;20075;-72
2023/09/20 01:42:58;;;;;;;8.05;2.88;;;17.60;99.90;;;;;;5066179;28;20115;-72
2023/09/20 01:45:24;;;;;;;15.50;3.83;;;17.60;99.90;;;;;;5063288;28;20090;-72
2023/09/20 01:47:54;;;;;;;9.23;3.20;;;17.60;99.90;;;;;;5085081;28;20047;-72
2023/09/20 01:50:24;;;;;;;11.05;3.28;;;17.60;99.90;;;;;;5062881;28;20047;-72
2023/09/20 01:52:52;;;;;;;11.52;3.42;;;17.60;99.90;;;;;;5057475;28;20053;-73
2023/09/20 01:55:20;;;;;;;7.95;3.20;;;17.60;99.90;;;;;;5074844;28;20406;-73
2023/09/20 01:57:48;;;;;;;8.70;3.10;;;17.60;99.90;;;;;;5067495;28;20040;-74
2023/09/20 02:00:22;;;;;;;8.80;3.00;;;17.60;99.90;;;;;;5065168;28;20054;-73
2023/09/20 02:02:53;;;;;;;8.32;3.28;;;17.60;99.90;;;;;;5060600;28;20043;-72
2023/09/20 02:05:20;;;;;;;8.30;3.08;;;17.60;99.90;;;;;;5071396;28;20056;-72
2023/09/20 02:07:47;;;;;;;9.48;3.08;;;17.60;99.90;;;;;;5082887;28;20033;-72
2023/09/20 02:10:14;;;;;;;7.68;2.70;;;17.60;99.90;;;;;;5052890;28;20056;-72
2023/09/20 02:12:45;;;;;;;10.15;3.38;;;17.60;99.90;;;;;;5064886;28;20107;-72
2023/09/20 02:15:12;;;;;;;6.60;2.58;;;17.60;99.90;;;;;;5065742;28;20052;-72
2023/09/20 02:17:39;;;;;;;6.88;2.80;;;17.60;99.90;;;;;;5057176;28;20437;-72
2023/09/20 02:20:12;;;;;;;10.27;3.70;;;17.60;99.90;;;;;;5066960;28;20233;-72
2023/09/20 02:22:39;;;;;;;6.45;3.10;;;17.60;99.90;;;;;;5079608;28;20067;-72
2023/09/20 02:25:11;;;;;;;8.75;2.70;;;17.60;99.90;;;;;;5071115;28;20498;-72
2023/09/20 02:27:44;;;;;;;9.90;3.47;;;17.60;99.90;;;;;;5067572;28;20068;-72
2023/09/20 02:30:14;;;;;;;11.63;3.55;;;17.60;99.90;;;;;;5061746;28;20044;-72
2023/09/20 02:32:41;;;;;;;9.57;3.03;;;17.60;99.90;;;;;;5055902;28;20046;-72
2023/09/20 02:35:07;;;;;;;8.43;2.77;;;17.60;99.90;;;;;;5065985;28;20487;-72
2023/09/20 02:37:37;;;;;;;11.52;3.45;;;17.60;99.90;;;;;;5052453;28;20306;-72
2023/09/20 02:40:13;;;;;;;10.10;2.90;;;17.60;99.90;;;;;;5076913;28;20104;-72
2023/09/20 02:42:52;;;;;;;10.75;3.20;;;17.60;99.90;;;;;;5066893;28;20051;-72
2023/09/20 02:45:19;;;;;;;7.18;2.83;;;17.50;99.90;;;;;;5065697;28;20773;-72
2023/09/20 02:47:49;;;;;;;8.03;3.03;;;17.60;99.90;;;;;;5068666;28;20609;-72
2023/09/20 02:50:18;;;;;;;7.57;2.78;;;17.50;99.90;;;;;;5064564;28;20081;-72
2023/09/20 02:52:45;;;;;;;7.30;2.72;;;17.60;99.90;;;;;;5063679;28;20044;-72
2023/09/20 02:55:13;;;;;;;10.15;3.63;;;17.50;99.90;;;;;;5066412;28;20127;-72
2023/09/20 02:57:42;;;;;;;9.00;2.97;;;17.50;99.90;;;;;;5068248;28;20241;-72
2023/09/20 03:00:16;;;;;;;9.65;3.30;;;17.50;99.90;;;;;;5040438;28;20040;-72
2023/09/20 03:02:44;;;;;;;10.40;3.20;;;17.50;99.90;;;;;;5061720;28;20043;-72
2023/09/20 03:05:11;;;;;;;7.45;2.90;;;17.50;99.90;;;;;;5066886;28;20419;-72
2023/09/20 03:07:37;;;;;;;7.82;3.00;;;17.50;99.90;;;;;;5066985;28;20052;-72
2023/09/20 03:10:05;;;;;;;10.85;3.47;;;17.50;99.90;;;;;;5064503;28;20059;-72
2023/09/20 03:12:32;;;;;;;8.63;2.60;;;17.50;99.90;;;;;;5072181;28;20044;-72
2023/09/20 03:15:04;;;;;;;11.93;3.65;;;17.50;99.90;;;;;;5060660;28;20058;-72
2023/09/20 03:17:31;;;;;;;8.60;2.97;;;17.50;99.90;;;;;;5072706;28;20181;-72
2023/09/20 03:19:57;;;;;;;8.43;2.92;;;17.50;99.90;;;;;;5070202;28;20104;-72
2023/09/20 03:22:23;;;;;;;6.72;3.08;;;17.50;99.90;;;;;;5069957;28;20127;-72
2023/09/20 03:24:48;;;;;;;6.03;2.80;;;17.40;99.90;;;;;;5062584;28;20159;-72
2023/09/20 03:27:15;;;;;;;7.32;3.22;;;17.40;99.90;;;;;;5082074;28;20185;-72
2023/09/20 03:29:42;;;;;;;6.75;3.20;;;17.40;99.90;;;;;;5070782;28;20047;-71
2023/09/20 03:32:09;;;;;;;9.77;2.92;;;17.40;99.90;;;;;;5069202;28;20087;-72
2023/09/20 03:34:35;;;;;;;8.55;3.13;;;17.40;99.90;;;;;;5059240;28;20045;-72
2023/09/20 03:37:01;;;;;;;10.00;3.22;;;17.40;99.90;;;;;;5085581;28;21570;-72
2023/09/20 03:39:26;;;;;;;8.70;3.45;;;17.40;99.90;;;;;;5062103;28;20044;-72
2023/09/20 03:41:52;;;;;;;6.28;2.85;;;17.40;99.90;;;;;;5069671;28;20519;-72
2023/09/20 03:44:19;;;;;;;7.47;3.33;;;17.40;99.90;;;;;;5071233;28;20056;-72
2023/09/20 03:46:47;;;;;;;8.73;3.30;;;17.40;99.90;;;;;;5066286;28;20040;-72
2023/09/20 03:49:13;;;;;;;10.45;3.53;;;17.40;99.90;;;;;;5067844;28;20044;-72
2023/09/20 03:51:38;;;;;;;8.18;3.20;;;17.40;99.90;;;;;;5079018;28;20484;-72
2023/09/20 03:54:04;;;;;;;10.07;3.45;;;17.40;99.90;;;;;;5065936;28;21107;-72
2023/09/20 03:56:30;;;;;;;9.35;3.42;;;17.30;99.90;;;;;;5082418;28;20040;-72
2023/09/20 03:58:55;;;;;;;8.02;3.00;;;17.30;99.90;;;;;;5085758;28;20036;-72
2023/09/20 04:01:22;;;;;;;8.90;3.42;;;17.20;99.90;;;;;;5071992;28;20068;-72
2023/09/20 04:03:48;;;;;;;8.13;3.22;;;17.20;99.90;;;;;;5065481;28;20066;-72
2023/09/20 04:06:14;;;;;;;8.10;3.65;;;17.20;99.90;;;;;;5059438;28;20040;-72
2023/09/20 04:08:41;;;;;;;6.13;3.00;;;17.20;99.90;;;;;;5060906;28;20055;-72
2023/09/20 04:11:07;;;;;;;9.80;3.63;;;17.10;99.90;;;;;;5073199;28;20498;-72
2023/09/20 04:13:33;;;;;;;9.63;3.15;;;17.10;99.90;;;;;;5070352;28;20053;-72
2023/09/20 04:15:58;;;;;;;7.28;2.90;;;17.10;99.90;;;;;;5086347;28;20364;-71
2023/09/20 04:18:26;;;;;;;9.38;3.25;;;17.00;99.90;;;;;;5070458;28;20066;-72
2023/09/20 04:20:51;;;;;;;8.80;3.28;;;17.00;99.90;;;;;;5086197;28;20448;-71
2023/09/20 04:23:17;;;;;;;8.43;3.22;;;17.00;99.90;;;;;;5057248;28;20118;-71
2023/09/20 04:25:43;;;;;;;8.77;3.15;;;16.90;99.90;;;;;;5081893;28;20032;-72
2023/09/20 04:28:09;;;;;;;7.50;2.95;;;16.90;99.90;;;;;;5069282;28;20056;-72
2023/09/20 04:30:40;;;;;;;9.68;3.10;;;16.90;99.90;;;;;;5069126;28;20052;-71
2023/09/20 04:33:07;;;;;;;6.78;3.13;;;16.80;99.90;;;;;;5062456;28;20131;-72
2023/09/20 04:35:33;;;;;;;8.83;3.63;;;16.80;99.90;;;;;;5069546;28;20044;-72
2023/09/20 04:38:00;;;;;;;9.38;2.90;;;16.80;99.90;;;;;;5066655;28;20338;-72
2023/09/20 04:40:26;;;;;;;9.95;3.50;;;16.80;99.90;;;;;;5069072;28;20491;-72
2023/09/20 04:42:51;;;;;;;8.73;3.28;;;16.70;99.90;;;;;;5081388;28;20085;-72
2023/09/20 04:45:20;;;;;;;8.75;3.22;;;16.70;99.90;;;;;;5067924;28;20044;-72
2023/09/20 04:47:46;;;;;;;7.15;2.92;;;16.70;99.90;;;;;;5071097;28;20075;-72
2023/09/20 04:50:13;;;;;;;8.57;3.00;;;16.70;99.90;;;;;;5070080;28;20083;-72
2023/09/20 04:52:38;;;;;;;9.65;3.47;;;16.60;99.90;;;;;;5070867;28;20052;-72
2023/09/20 04:55:05;;;;;;;8.05;3.05;;;16.60;99.90;;;;;;5066629;28;20054;-72
2023/09/20 04:57:31;;;;;;;8.88;3.00;;;16.60;99.90;;;;;;5063087;28;20048;-72
2023/09/20 04:59:57;;;;;;;10.77;3.35;;;16.60;99.90;;;;;;5054080;28;20048;-72
2023/09/20 05:02:23;;;;;;;7.75;2.88;;;16.60;99.90;;;;;;5067877;28;20140;-72
2023/09/20 05:04:48;;;;;;;6.90;2.90;;;16.60;99.90;;;;;;5065925;28;20052;-72
2023/09/20 05:07:14;;;;;;;8.00;3.00;;;16.60;99.90;;;;;;5090851;28;20055;-72
2023/09/20 05:09:40;;;;;;;9.27;3.28;;;16.60;99.90;;;;;;5058264;28;20044;-72
2023/09/20 05:12:05;;;;;;;8.90;2.90;;;16.60;99.90;;;;;;5062233;28;20040;-72
2023/09/20 05:14:31;;;;;;;7.20;3.20;;;16.60;99.90;;;;;;5064231;28;20106;-72
2023/09/20 05:16:57;;;;;;;6.63;2.95;;;16.60;99.90;;;;;;5065525;28;20032;-72
2023/09/20 05:19:23;;;;;;;6.65;2.60;;;16.60;99.90;;;;;;5076847;28;20097;-72
2023/09/20 05:21:49;;;;;;;8.43;3.10;;;16.60;99.90;;;;;;5066068;28;20135;-72
2023/09/20 05:24:14;;;;;;;7.53;3.13;;;16.60;99.90;;;;;;5081705;28;20047;-72
2023/09/20 05:26:40;;;;;;;8.10;3.10;;;16.60;99.90;;;;;;5062716;28;20044;-69
2023/09/20 05:29:06;;;;;;;6.63;2.65;;;16.60;99.90;;;;;;5070113;28;20185;-72
2023/09/20 05:31:32;;;;;;;10.23;3.30;;;16.60;99.90;;;;;;5073582;28;20028;-70
2023/09/20 05:33:59;;;;;;;6.40;2.97;;;16.60;99.90;;;;;;5057282;28;20055;-70
2023/09/20 05:36:27;;;;;;;5.13;2.40;;;16.60;99.90;;;;;;5065348;28;20069;-71
2023/09/20 05:38:54;;;;;;;8.25;2.90;;;16.60;99.90;;;;;;5062858;28;20040;-70
2023/09/20 05:41:19;;;;;;;9.15;3.38;;;16.70;99.90;;;;;;5063300;28;20044;-71
2023/09/20 05:43:45;;;;;;;8.60;3.00;;;16.70;99.90;;;;;;5063913;28;20044;-70
2023/09/20 05:46:16;;;;;;;7.50;2.95;;;16.70;99.90;;;;;;5062699;28;20402;-70
2023/09/20 05:48:42;;;;;;;8.05;3.17;;;16.70;99.90;;;;;;5063972;28;20052;-70
2023/09/20 05:51:08;;;;;;;8.00;3.08;;;16.70;99.90;;;;;;5063020;28;20033;-70
2023/09/20 05:53:34;;;;;;;8.48;3.30;;;16.70;99.90;;;;;;5041642;28;20052;-72
2023/09/20 05:56:11;;;;;;;8.48;2.90;;;16.70;99.90;;;;;;5076776;28;20495;-70
2023/09/20 05:58:42;;;;;;;6.85;2.67;;;16.80;99.90;;;;;;5060576;28;20048;-70
2023/09/20 06:01:09;;;;;;;5.95;2.78;;;16.80;99.90;;;;;;5063983;28;20651;-69
2023/09/20 06:03:36;;;;;;;6.80;2.97;;;16.80;99.90;;;;;;5066810;28;20146;-69
2023/09/20 06:06:03;;;;;;;5.82;3.13;;;16.80;99.90;;;;;;5060601;28;20043;-69
2023/09/20 06:08:29;;;;;;;7.90;3.20;;;16.80;99.90;;;;;;5067803;28;20127;-70
2023/09/20 06:10:55;;;;;;;8.18;3.33;;;16.80;99.90;;;;;;5077214;28;20415;-70
2023/09/20 06:13:21;;;;;;;7.28;3.20;;;16.90;99.90;;;;;;5064460;28;20134;-70
2023/09/20 06:15:46;;;;;;;7.60;3.00;;;16.90;99.90;;;;;;5067694;28;20066;-70
2023/09/20 06:18:15;;;;;;;7.47;2.72;;;16.90;99.90;;;;;;5071246;28;20040;-70
2023/09/20 06:20:50;;;;;;;10.68;3.40;;;16.90;99.90;;;;;;5063893;28;20135;-70
2023/09/20 06:23:18;;;;;;;8.80;3.22;;;16.90;99.90;;;;;;5064593;28;20065;-70
2023/09/20 06:25:47;;;;;;;7.22;3.08;;;16.90;99.90;;;;;;5062331;28;20039;-70
2023/09/20 06:28:13;;;;;;;7.68;3.08;;;17.00;99.90;;;;;;5066657;28;20423;-70
2023/09/20 06:30:41;;;;;;;6.82;2.92;;;17.00;99.90;;;;;;5061904;28;20514;-70
2023/09/20 06:33:08;;;;;;;10.65;3.60;;;17.00;99.90;;;;;;5082797;28;20070;-70
2023/09/20 06:35:39;;;;;;;9.18;3.40;;;17.10;99.90;;;;;;5089235;28;20134;-70
2023/09/20 06:38:05;;;;;;;8.57;3.08;;;17.10;99.90;;;;;;5068772;28;20052;-70
2023/09/20 06:40:38;;;;;;;11.30;3.50;;;17.10;99.90;;;;;;5060744;28;20047;-71
2023/09/20 06:43:06;;;;;;;9.18;3.17;;;17.20;99.90;;;;;;5068229;28;20560;-70
2023/09/20 06:45:32;;;;;;;8.80;3.53;;;17.20;99.90;;;;;;5088000;28;20047;-70
2023/09/20 06:47:58;;;;;;;8.52;3.08;;;17.20;99.90;;;;;;5088948;28;20534;-70
2023/09/20 06:50:24;;;;;;;8.95;3.10;;;17.30;99.90;;;;;;5070063;28;20055;-70
2023/09/20 06:52:51;;;;;;;7.63;3.13;;;17.30;99.90;;;;;;5064497;28;20550;-71
2023/09/20 06:55:18;;;;;;;6.60;3.15;;;17.40;99.90;;;;;;5070066;28;20050;-70
2023/09/20 06:57:47;;;;;;;;;;;17.40;99.90;;;;;;5047260;28;20048;-70
2023/09/20 07:00:24;;;;;;;12.13;3.92;;;17.40;99.90;;;;;;5059919;28;19970;-70
2023/09/20 07:02:56;;;;;;;7.88;3.50;;;17.50;99.90;;;;;;5070313;28;20142;-71
2023/09/20 07:05:24;;;;;;;7.03;3.33;;;17.60;99.90;;;;;;5063668;28;20135;-70
2023/09/20 07:07:51;;;;;;;10.68;3.35;;;17.60;99.90;;;;;;5065086;28;20048;-71
2023/09/20 07:10:17;;;;;;;9.50;3.30;;;17.70;99.90;;;;;;5057704;28;20041;-71
2023/09/20 07:12:45;;;;;;;8.35;3.60;;;17.70;99.90;;;;;;5067493;28;20048;-71
2023/09/20 07:15:21;;;;;;;7.90;3.40;;;17.80;99.90;;;;;;5073900;28;20414;-70
2023/09/20 07:18:00;;;;;;;8.77;3.67;;;17.80;99.90;;;;;;5082630;28;20177;-72
2023/09/20 07:20:31;;;;;;;8.68;3.90;;;17.90;99.90;;;;;;5071356;28;20116;-72
2023/09/20 07:22:58;;;;;;;7.90;3.38;;;17.90;99.90;;;;;;5067638;28;20383;-72
2023/09/20 07:25:27;;;;;;;9.63;3.65;;;17.90;99.90;;;;;;5082349;28;20044;-73
2023/09/20 07:27:59;;;;;;;6.97;3.40;;;18.00;99.90;;;;;;5087776;28;20033;-73
2023/09/20 07:30:31;;;;;;;9.18;3.58;;;18.00;99.90;;;;;;5073539;28;20047;-73
2023/09/20 07:32:59;;;;;;;10.32;3.58;;;18.10;99.90;;;;;;5086104;28;20044;-74
2023/09/20 07:35:28;;;;;;;7.70;3.53;;;18.10;99.90;;;;;;5068333;28;20098;-73
2023/09/20 07:37:56;;;;;;;10.52;3.65;;;18.10;99.90;;;;;;5068030;28;20364;-73
2023/09/20 07:40:33;;;;;;;8.05;3.70;;;18.20;99.90;;;;;;5064668;28;20123;-70
2023/09/20 07:43:03;;;;;;;7.22;3.25;;;18.20;99.90;;;;;;5069757;28;20647;-72
2023/09/20 07:45:38;;;;;;;8.27;3.20;;;18.20;99.90;;;;;;5085831;28;20048;-72
2023/09/20 07:48:13;;;;;;;6.50;3.22;;;18.30;99.90;;;;;;5055927;28;20040;-73
2023/09/20 07:50:40;;;;;;;8.55;3.40;;;18.30;99.90;;;;;;5078777;28;20039;-72
2023/09/20 07:53:10;;;;;;;10.25;3.47;;;18.30;99.90;;;;;;5072272;28;20040;-72
2023/09/20 07:55:41;;;;;;;8.65;3.20;;;18.40;99.90;;;;;;5090623;28;20067;-73
2023/09/20 07:58:14;;;;;;;7.85;3.20;;;18.40;99.90;;;;;;5054793;28;20046;-73
2023/09/20 08:00:52;;;;;;;7.70;3.05;;;18.50;99.90;;;;;;5088141;28;20052;-72
2023/09/20 08:03:20;;;;;;;8.82;3.25;;;18.60;99.90;;;;;;5081318;28;20048;-73
2023/09/20 08:05:48;;;;;;;7.07;3.00;;;18.70;99.90;;;;;;5066237;28;20056;-72
2023/09/20 08:08:14;;;;;;;8.82;2.92;;;18.70;99.90;;;;;;5067618;28;20214;-71
2023/09/20 08:10:41;;;;;;;9.43;3.28;;;18.80;99.90;;;;;;5088643;28;20043;-73
2023/09/20 08:13:07;;;;;;;7.68;2.90;;;18.90;99.90;;;;;;5070963;28;20056;-72
2023/09/20 08:15:38;;;;;;;8.50;2.83;;;18.90;99.90;;;;;;5059417;28;20067;-71
2023/09/20 08:20:48;;;;;;;6.95;2.83;;;19.00;99.90;;;;;;5080373;28;20105;-70
2023/09/20 09:01:45;;;;;;;6.40;2.40;;;19.40;99.90;;;;;;5069172;28;20778;-73
2023/09/20 09:04:14;;;;;;;6.72;2.47;;;19.40;99.90;;;;;;5069183;28;20060;-73
2023/09/20 09:06:40;;;;;;;6.72;2.63;;;19.40;99.90;;;;;;5067014;28;20135;-73
2023/09/20 09:09:06;;;;;;;5.20;2.28;;;19.40;99.90;;;;;;5066083;28;20115;-72
2023/09/20 09:11:31;;;;;;;5.80;2.42;;;19.40;99.90;;;;;;5066027;28;20127;-75
2023/09/20 09:13:58;;;;;;;7.97;2.50;;;19.40;99.90;;;;;;5070746;28;20047;-76
2023/09/20 09:16:34;;;;;;;6.33;2.57;;;19.40;99.90;;;;;;5069905;28;20039;-75
2023/09/20 09:19:00;;;;;;;5.55;2.65;;;19.40;99.90;;;;;;5065068;28;20079;-75
2023/09/20 09:21:30;;;;;;;6.60;2.90;;;19.40;99.90;;;;;;5084952;28;20125;-72
2023/09/20 09:23:57;;;;;;;6.03;2.55;;;19.40;99.90;;;;;;5089031;28;20063;-74
2023/09/20 09:26:25;;;;;;;6.00;2.58;;;19.40;99.90;;;;;;5065558;28;20139;-75
2023/09/20 09:28:51;;;;;;;5.68;2.45;;;19.50;99.90;;;;;;5062213;28;20703;-72
2023/09/20 09:31:17;;;;;;;6.53;2.75;;;19.50;99.90;;;;;;5066330;28;20087;-75
2023/09/20 09:33:43;;;;;;;5.87;2.80;;;19.60;99.90;;;;;;5069462;28;20047;-74
2023/09/20 09:36:10;;;;;;;6.53;2.20;;;19.60;99.90;;;;;;5068426;28;20409;-74
2023/09/20 09:38:39;;;;;;;5.82;2.60;;;19.60;99.90;;;;;;5065351;28;20047;-73
2023/09/20 09:41:07;;;;;;;9.25;2.95;;;19.70;99.90;;;;;;5059313;28;20043;-75
2023/09/20 09:43:33;;;;;;;7.28;2.60;;;19.70;99.90;;;;;;5086319;28;20047;-72
2023/09/20 09:46:09;;;;;;;6.15;2.65;;;19.70;99.90;;;;;;5065116;28;20036;-72
2023/09/20 09:48:37;;;;;;;7.10;2.78;;;19.80;99.90;;;;;;5069652;28;20040;-73
2023/09/20 09:51:06;;;;;;;7.47;2.75;;;19.80;99.90;;;;;;5086301;28;20040;-72
2023/09/20 09:53:35;;;;;;;6.97;2.60;;;19.80;99.90;;;;;;5083659;28;20055;-72
2023/09/20 09:56:05;;;;;;;5.18;2.33;;;19.70;99.90;;;;;;5087681;28;20101;-72
2023/09/20 09:58:31;;;;;;;5.78;2.63;;;19.70;99.90;;;;;;5065338;28;20550;-71
2023/09/20 10:00:58;;;;;;;5.80;2.45;;;19.70;99.90;;;;;;5071729;28;20044;-71
2023/09/20 10:03:32;;;;;;;6.40;2.75;;;19.70;99.90;;;;;;5067472;28;20044;-76
2023/09/20 10:06:10;;;;;;;3.85;2.20;;;19.60;99.90;;;;;;5068733;28;20044;-72
2023/09/20 10:08:41;;;;;;;6.35;2.55;;;19.60;99.90;;;;;;5066417;28;20388;-72
2023/09/20 10:11:09;;;;;;;7.15;2.45;;;19.60;99.90;;;;;;5070350;28;20049;-72
2023/09/20 10:13:37;;;;;;;5.60;2.30;;;19.60;99.90;;;;;;5081169;28;20050;-72
2023/09/20 10:16:10;;;;;;;6.15;2.33;;;19.60;99.90;;;;;;5065713;28;20087;-73
2023/09/20 10:18:56;;;;;;;4.38;2.30;;;19.60;99.90;;;;;;5061946;28;20041;-75
2023/09/20 10:21:25;;;;;;;5.00;2.33;;;19.70;99.90;;;;;;5062725;28;20048;-74
2023/09/20 10:23:58;;;;;;;6.38;2.78;;;19.70;99.90;;;;;;5086935;28;20051;-72
2023/09/20 10:26:24;;;;;;;5.05;2.30;;;19.70;99.90;;;;;;5090130;28;20469;-73
2023/09/20 10:28:57;;;;;;;6.20;2.60;;;19.70;99.90;;;;;;5071546;28;20028;-73
2023/09/20 10:31:23;;;;;;;4.50;2.50;;;19.80;99.90;;;;;;5086420;28;20087;-73
2023/09/20 10:33:55;;;;;;;6.57;2.75;;;19.80;99.90;;;;;;5073158;28;20082;-72
2023/09/20 10:36:25;;;;;;;6.60;2.65;;;19.90;99.90;;;;;;5070561;28;20132;-72
2023/09/20 10:39:11;;;;;;;6.20;2.70;;;19.80;99.90;;;;;;5065723;28;20048;-76
2023/09/20 10:41:41;;;;;;;6.13;2.53;;;19.90;99.90;;;;;;5086150;28;20126;-77
2023/09/20 10:44:07;;;;;;;5.18;2.60;;;19.90;99.90;;;;;;5072018;28;20049;-77
2023/09/20 10:46:37;;;;;;;4.78;2.50;;;20.00;99.90;;;;;;5058299;28;20060;-77
2023/09/20 10:49:06;;;;;;;6.50;2.70;;;20.00;99.90;;;;;;5073294;28;20767;-76
2023/09/20 10:51:44;;;;;;;5.97;2.75;;;20.00;99.90;;;;;;5065403;28;20044;-75
2023/09/20 10:54:23;;;;;;;5.53;3.10;;;20.00;99.90;;;;;;5067762;28;20044;-74
2023/09/20 10:56:51;;;;;;;5.43;2.60;;;20.00;99.90;;;;;;5071233;28;20049;-75
2023/09/20 10:59:18;;;;;;;6.68;2.95;;;20.00;99.90;;;;;;5071584;28;20129;-75
2023/09/20 11:02:17;;;;;;;;;;;20.00;99.90;;;;;;5062570;28;20051;-74
2023/09/20 11:04:46;;;;;;;5.30;2.83;;;20.00;99.90;;;;;;4999582;28;19927;-73
2023/09/20 11:07:14;;;;;;;4.85;2.72;;;20.00;99.90;;;;;;5088592;28;20066;-73
2023/09/20 11:09:40;;;;;;;7.60;3.08;;;20.10;99.90;;;;;;5089096;28;20039;-73
2023/09/20 11:12:07;;;;;;;7.38;2.97;;;20.10;99.90;;;;;;5044145;28;20478;-74
2023/09/20 11:14:39;;;;;;;6.07;3.08;;;20.20;99.90;;;;;;5066898;28;20144;-76
2023/09/20 11:17:05;;;;;;;7.13;2.90;;;20.20;99.90;;;;;;5065002;28;20048;-75
2023/09/20 11:19:32;;;;;;;6.47;2.65;;;20.20;99.90;;;;;;5071032;28;20052;-76
2023/09/20 11:21:58;;;;;;;;;;;20.20;99.90;;;;;;5067224;28;20047;-74
2023/09/20 11:24:27;;;;;;;7.23;3.30;;;20.30;99.90;;;;;;5085389;28;19928;-73
2023/09/20 11:26:55;;;;;;;9.02;3.05;;;20.30;99.90;;;;;;5066654;28;20036;-73
2023/09/20 11:29:20;;;;;;;;;;;20.40;99.90;;;;;;5070736;28;20543;-73
2023/09/20 11:31:48;;;;;;;5.87;3.23;;;20.50;99.90;;;;;;5071803;28;19920;-73
2023/09/20 11:34:14;;;;;;;5.40;2.95;;;20.50;99.90;;;;;;5071940;28;20054;-73
2023/09/20 11:36:44;;;;;;;6.30;2.93;;;20.60;99.90;;;;;;5070391;28;20044;-72
2023/09/20 11:39:14;;;;;;;7.82;2.75;;;20.60;99.90;;;;;;5072338;28;20597;-72
2023/09/20 11:41:43;;;;;;;7.10;2.90;;;20.70;99.90;;;;;;5078638;28;20044;-71
2023/09/20 11:44:09;;;;;;;7.43;3.03;;;20.70;99.90;;;;;;5072193;28;20052;-72
2023/09/20 11:46:35;;;;;;;6.45;3.50;;;20.70;99.90;;;;;;5086911;28;20177;-71
2023/09/20 11:49:02;;;;;;;7.28;3.20;;;20.80;99.90;;;;;;5061575;28;20040;-72
2023/09/20 11:51:33;;;;;;;6.68;3.15;;;20.80;99.90;;;;;;5072858;28;21004;-72
2023/09/20 11:54:00;;;;;;;7.82;3.30;;;20.90;99.90;;;;;;5066458;28;20056;-72
2023/09/20 11:56:29;;;;;;;6.97;3.38;;;20.90;99.90;;;;;;5056215;28;21275;-73
2023/09/20 11:58:58;;;;;;;5.72;3.22;;;21.00;99.90;;;;;;5060616;28;20130;-73
2023/09/20 12:01:25;;;;;;;5.55;3.20;;;21.00;99.90;;;;;;5061401;28;20499;-72
2023/09/20 12:03:51;;;;;;;7.05;3.60;;;21.00;99.90;;;;;;5064188;28;20160;-72
2023/09/20 12:06:21;;;;;;;6.70;3.85;;;21.10;99.90;;;;;;5066055;28;20119;-72
2023/09/20 12:08:47;;;;;;;5.80;2.92;;;21.20;99.90;;;;;;5062316;28;20533;-72
2023/09/20 12:11:14;;;;;;;5.30;3.00;;;21.20;99.90;;;;;;5062092;28;20133;-73
2023/09/20 12:13:42;;;;;;;5.25;3.30;;;21.30;99.90;;;;;;5085013;28;20058;-73
2023/09/20 12:16:08;;;;;;;6.13;3.20;;;21.40;99.90;;;;;;5067419;28;20160;-74
2023/09/20 12:18:36;;;;;;;5.97;2.80;;;21.50;99.90;;;;;;5063397;28;20101;-75
2023/09/20 12:21:03;;;;;;;6.32;3.63;;;21.50;99.90;;;;;;5055905;28;20044;-74
2023/09/20 12:23:30;;;;;;;5.55;3.03;;;21.50;99.90;;;;;;5069984;28;20106;-74
2023/09/20 12:25:56;;;;;;;6.30;2.97;;;21.40;99.90;;;;;;5070059;28;20052;-74
2023/09/20 12:28:23;;;;;;;5.10;2.53;;;21.40;99.90;;;;;;5067945;28;20040;-74
2023/09/20 12:30:49;;;;;;;;;;;21.40;99.90;;;;;;5068445;28;20054;-73
2023/09/20 12:33:14;;;;;;;5.20;3.00;;;21.40;99.90;;;;;;5089321;28;19927;-74
2023/09/20 12:35:40;;;;;;;4.38;2.85;;;21.40;99.90;;;;;;5064679;28;20720;-74
2023/09/20 12:38:09;;;;;;;5.97;2.70;;;21.40;99.90;;;;;;5060868;28;20041;-75
2023/09/20 12:40:35;;;;;;;6.03;2.60;;;21.40;99.90;;;;;;5058570;28;20074;-75
2023/09/20 12:43:01;;;;;;;5.38;2.78;;;21.60;99.90;;;;;;5057605;28;20040;-73
2023/09/20 12:45:27;;;;;;;6.57;2.77;;;21.60;99.90;;;;;;5069363;28;20045;-73
2023/09/20 12:47:53;;;;;;;3.70;2.30;;;21.80;99.90;;;;;;5061137;28;20812;-75
2023/09/20 12:50:18;;;;;;;4.18;2.50;;;21.90;99.90;;;;;;5079249;28;20127;-73
2023/09/20 12:52:47;;;;;;;6.03;2.50;;;22.00;99.90;;;;;;5060031;28;20091;-73
2023/09/20 12:55:13;;;;;;;6.43;2.40;;;22.00;99.90;;;;;;5070227;28;20054;-78
2023/09/20 12:57:40;;;;;;;4.03;2.47;;;22.10;99.90;;;;;;5061798;28;20063;-79
2023/09/20 13:00:09;;;;;;;3.95;2.47;;;22.20;99.90;;;;;;5083916;28;20040;-73
2023/09/20 13:02:35;;;;;;;3.58;2.40;;;22.20;99.90;;;;;;5069156;28;20048;-73
2023/09/20 13:05:01;;;;;;;3.38;2.30;;;22.20;99.90;;;;;;5055477;28;20060;-73
2023/09/20 13:07:27;;;;;;;6.27;2.63;;;22.20;99.90;;;;;;5086621;28;20048;-73
2023/09/20 13:09:53;;;;;;;4.80;2.30;;;22.30;99.90;;;;;;5082282;28;20309;-73
2023/09/20 13:12:21;;;;;;;5.70;2.20;;;22.30;99.90;;;;;;5058431;28;20063;-73
2023/09/20 13:14:46;;;;;;;4.78;2.00;;;22.40;99.90;;;;;;5054895;28;20078;-73
2023/09/20 13:17:12;;;;;;;4.00;2.08;;;22.40;99.90;;;;;;5080507;28;20944;-73
2023/09/20 13:19:38;;;;;;;3.42;1.80;;;22.40;99.90;;;;;;5064809;28;20110;-73
2023/09/20 13:22:05;;;;;;;6.15;1.90;;;22.30;99.90;;;;;;5066743;28;20433;-76
2023/09/20 13:24:34;;;;;;;4.35;1.98;;;22.40;99.90;;;;;;5056421;28;20097;-75
2023/09/20 13:27:01;;;;;;;2.83;2.08;;;22.40;99.90;;;;;;5058682;28;20396;-75
2023/09/20 13:29:30;;;;;;;4.10;2.20;;;22.40;99.90;;;;;;5085515;28;20040;-75
2023/09/20 13:31:56;;;;;;;5.32;1.90;;;22.40;99.90;;;;;;5081795;28;20536;-76
2023/09/20 13:34:22;;;;;;;4.25;1.95;;;22.40;99.90;;;;;;5066261;28;20079;-75